Pierces Chapel, Texas
Current Conditions -  °F | °C
As of 1:55 AM on Friday 31 Oct 2014 (Local Time) from KJSO Reporting Station
Clear Clear  
Wind Chill: 66°   Ceiling: Unl
Heat Index: 66°   Visibility: 10mi
Dew Point: 50°   Wind: 8mph
Humidity: 55%   Direction: 310°NW
Pressure: 30.14"   Gusts: NA
Location:  31.9649°N, 95.3036°W
Report Text: KJSO 310655Z AUTO 31007KT 10SM CLR 18/10 A3014 RMK AO2 T01890098
Loading
Personal Weather Stations






























Interactive Weather Map
Tropical Storm Tracking
New forecast layout! Learn more

10-Day Weather Forecast

Advertisements
Track Severe Weather on mobile